KZ-0073 weather

CLOSED Chundzha Airfield
Chundzha, Almaty Region, Kazakhstan

Public forecast

Using degrees Celsius for public forecast. Weather courtesy of forecast.io.

Closest aviation weather report (METAR) to Chundzha Airfield

Report is more than 6 hours old.

Closest report is Yining Airport, 85.1 nm (157.6 km) ENE. Retrieved 2017/08/03 00:00 UTC (2 years ago):

ZWYN 030000Z 08002MPS CAVOK 18/06 Q1008 NOSIG

Closest aviation forecast (TAF) to Chundzha Airfield

Closest forecast is Almaty Airport, 105.2 nm (194.8 km) W. Retrieved 2020/01/28 18:21 UTC (45 minutes ago):

TAF UAAA 281700Z 2818/2918 16003MPS 0800 FZFG VV003 TXM01/2908Z TNM09/2901Z TEMPO 2818/2906 VRB02MPS 0200 VV001 TEMPO 2906/2908 36003MPS 1500 BR SCT006 BKN011 FM290800 04003G08MPS 3100 BR FU SCT015 BKN100 BECMG 2911/2912 16003MPS 1500 BR TEMPO 2912/2918 20003MPS 0200 FZFG VV001